sensor_id;sensor_type;location;lat;lon;timestamp;temperature;humidity
65854;DHT22;52627;48.838;2.402;2022-08-24T00:01:59;24.92;58.60
65854;DHT22;52627;48.838;2.402;2022-08-24T00:04:27;24.90;58.61
65854;DHT22;52627;48.838;2.402;2022-08-24T00:06:58;24.88;58.67
65854;DHT22;52627;48.838;2.402;2022-08-24T00:09:28;24.85;58.71
65854;DHT22;52627;48.838;2.402;2022-08-24T00:11:58;24.82;58.72
65854;DHT22;52627;48.838;2.402;2022-08-24T00:14:26;24.82;58.80
65854;DHT22;52627;48.838;2.402;2022-08-24T00:16:54;24.79;58.84
65854;DHT22;52627;48.838;2.402;2022-08-24T00:19:22;24.77;58.94
65854;DHT22;52627;48.838;2.402;2022-08-24T00:21:50;24.74;59.06
65854;DHT22;52627;48.838;2.402;2022-08-24T00:24:19;24.71;59.16
65854;DHT22;52627;48.838;2.402;2022-08-24T00:26:46;24.70;59.20
65854;DHT22;52627;48.838;2.402;2022-08-24T00:29:15;24.67;59.29
65854;DHT22;52627;48.838;2.402;2022-08-24T00:31:44;24.66;59.41
65854;DHT22;52627;48.838;2.402;2022-08-24T00:34:12;24.64;59.52
65854;DHT22;52627;48.838;2.402;2022-08-24T00:36:40;24.60;59.67
65854;DHT22;52627;48.838;2.402;2022-08-24T00:39:08;24.56;59.80
65854;DHT22;52627;48.838;2.402;2022-08-24T00:41:41;24.55;59.90
65854;DHT22;52627;48.838;2.402;2022-08-24T00:44:11;24.52;60.00
65854;DHT22;52627;48.838;2.402;2022-08-24T00:47:02;24.50;60.09
65854;DHT22;52627;48.838;2.402;2022-08-24T00:52:56;24.50;60.26
65854;DHT22;52627;48.838;2.402;2022-08-24T00:55:49;24.45;60.40
65854;DHT22;52627;48.838;2.402;2022-08-24T00:58:27;24.44;60.47
65854;DHT22;52627;48.838;2.402;2022-08-24T01:01:02;24.42;60.55
65854;DHT22;52627;48.838;2.402;2022-08-24T01:03:33;24.40;60.65
65854;DHT22;52627;48.838;2.402;2022-08-24T01:06:03;24.38;60.70
65854;DHT22;52627;48.838;2.402;2022-08-24T01:08:32;24.37;60.78
65854;DHT22;52627;48.838;2.402;2022-08-24T01:11:01;24.37;60.82
65854;DHT22;52627;48.838;2.402;2022-08-24T01:13:43;24.35;60.90
65854;DHT22;52627;48.838;2.402;2022-08-24T01:16:13;24.34;60.96
65854;DHT22;52627;48.838;2.402;2022-08-24T01:19:03;24.32;61.03
65854;DHT22;52627;48.838;2.402;2022-08-24T01:22:10;24.32;61.11
65854;DHT22;52627;48.838;2.402;2022-08-24T01:24:56;24.31;61.21
65854;DHT22;52627;48.838;2.402;2022-08-24T01:27:24;24.27;61.29
65854;DHT22;52627;48.838;2.402;2022-08-24T01:29:54;24.25;61.37
65854;DHT22;52627;48.838;2.402;2022-08-24T01:32:24;24.23;61.42
65854;DHT22;52627;48.838;2.402;2022-08-24T01:34:54;24.22;61.44
65854;DHT22;52627;48.838;2.402;2022-08-24T01:37:23;24.23;61.50
65854;DHT22;52627;48.838;2.402;2022-08-24T01:39:52;24.21;61.53
65854;DHT22;52627;48.838;2.402;2022-08-24T01:42:25;24.20;61.60
65854;DHT22;52627;48.838;2.402;2022-08-24T01:44:54;24.19;61.68
65854;DHT22;52627;48.838;2.402;2022-08-24T01:47:21;24.18;61.77
65854;DHT22;52627;48.838;2.402;2022-08-24T01:49:49;24.14;61.84
65854;DHT22;52627;48.838;2.402;2022-08-24T01:52:21;24.12;61.88
65854;DHT22;52627;48.838;2.402;2022-08-24T01:54:51;24.11;61.98
65854;DHT22;52627;48.838;2.402;2022-08-24T01:57:23;24.09;62.04
65854;DHT22;52627;48.838;2.402;2022-08-24T01:59:53;24.08;62.08
65854;DHT22;52627;48.838;2.402;2022-08-24T02:02:21;24.08;62.14
65854;DHT22;52627;48.838;2.402;2022-08-24T02:04:54;24.05;62.25
65854;DHT22;52627;48.838;2.402;2022-08-24T02:07:21;24.02;62.35
65854;DHT22;52627;48.838;2.402;2022-08-24T02:09:49;23.98;62.49
65854;DHT22;52627;48.838;2.402;2022-08-24T02:12:18;23.91;62.71
65854;DHT22;52627;48.838;2.402;2022-08-24T02:14:46;23.82;62.90
65854;DHT22;52627;48.838;2.402;2022-08-24T02:17:14;23.77;62.97
65854;DHT22;52627;48.838;2.402;2022-08-24T02:19:43;23.75;63.09
65854;DHT22;52627;48.838;2.402;2022-08-24T02:22:11;23.69;63.18
65854;DHT22;52627;48.838;2.402;2022-08-24T02:24:39;23.67;63.23
65854;DHT22;52627;48.838;2.402;2022-08-24T02:27:06;23.66;63.31
65854;DHT22;52627;48.838;2.402;2022-08-24T02:29:34;23.64;63.36
65854;DHT22;52627;48.838;2.402;2022-08-24T02:32:02;23.62;63.46
65854;DHT22;52627;48.838;2.402;2022-08-24T02:34:30;23.60;63.54
65854;DHT22;52627;48.838;2.402;2022-08-24T02:36:58;23.59;63.57
65854;DHT22;52627;48.838;2.402;2022-08-24T02:39:26;23.58;63.68
65854;DHT22;52627;48.838;2.402;2022-08-24T02:41:54;23.56;63.70
65854;DHT22;52627;48.838;2.402;2022-08-24T02:44:21;23.56;63.73
65854;DHT22;52627;48.838;2.402;2022-08-24T02:46:49;23.57;63.78
65854;DHT22;52627;48.838;2.402;2022-08-24T02:49:17;23.58;63.80
65854;DHT22;52627;48.838;2.402;2022-08-24T02:51:45;23.59;63.82
65854;DHT22;52627;48.838;2.402;2022-08-24T02:54:14;23.59;63.88
65854;DHT22;52627;48.838;2.402;2022-08-24T02:56:46;23.58;63.92
65854;DHT22;52627;48.838;2.402;2022-08-24T02:59:14;23.59;63.93
65854;DHT22;52627;48.838;2.402;2022-08-24T03:01:43;23.58;64.00
65854;DHT22;52627;48.838;2.402;2022-08-24T03:04:16;23.58;64.00
65854;DHT22;52627;48.838;2.402;2022-08-24T03:06:45;23.58;63.99
65854;DHT22;52627;48.838;2.402;2022-08-24T03:09:12;23.58;64.01
65854;DHT22;52627;48.838;2.402;2022-08-24T03:11:40;23.58;64.04
65854;DHT22;52627;48.838;2.402;2022-08-24T03:14:11;23.57;64.03
65854;DHT22;52627;48.838;2.402;2022-08-24T03:16:40;23.55;64.09
65854;DHT22;52627;48.838;2.402;2022-08-24T03:19:07;23.55;64.11
65854;DHT22;52627;48.838;2.402;2022-08-24T03:21:35;23.53;64.14
65854;DHT22;52627;48.838;2.402;2022-08-24T03:24:02;23.52;64.19
65854;DHT22;52627;48.838;2.402;2022-08-24T03:26:30;23.54;64.20
65854;DHT22;52627;48.838;2.402;2022-08-24T03:28:58;23.53;64.19
65854;DHT22;52627;48.838;2.402;2022-08-24T03:31:26;23.53;64.18
65854;DHT22;52627;48.838;2.402;2022-08-24T03:33:53;23.53;64.19
65854;DHT22;52627;48.838;2.402;2022-08-24T03:36:20;23.52;64.23
65854;DHT22;52627;48.838;2.402;2022-08-24T03:38:48;23.49;64.27
65854;DHT22;52627;48.838;2.402;2022-08-24T03:41:16;23.49;64.29
65854;DHT22;52627;48.838;2.402;2022-08-24T03:43:44;23.49;64.29
65854;DHT22;52627;48.838;2.402;2022-08-24T03:46:18;23.48;64.29
65854;DHT22;52627;48.838;2.402;2022-08-24T03:48:53;23.47;64.30
65854;DHT22;52627;48.838;2.402;2022-08-24T03:51:24;23.47;64.31
65854;DHT22;52627;48.838;2.402;2022-08-24T03:53:54;23.46;64.32
65854;DHT22;52627;48.838;2.402;2022-08-24T03:56:24;23.43;64.40
65854;DHT22;52627;48.838;2.402;2022-08-24T03:58:53;23.38;64.44
65854;DHT22;52627;48.838;2.402;2022-08-24T04:01:21;23.35;64.50
65854;DHT22;52627;48.838;2.402;2022-08-24T04:03:50;23.32;64.57
65854;DHT22;52627;48.838;2.402;2022-08-24T04:06:19;23.29;64.60
65854;DHT22;52627;48.838;2.402;2022-08-24T04:08:49;23.29;64.62
65854;DHT22;52627;48.838;2.402;2022-08-24T04:11:20;23.27;64.69
65854;DHT22;52627;48.838;2.402;2022-08-24T04:13:52;23.28;64.70
65854;DHT22;52627;48.838;2.402;2022-08-24T04:16:23;23.28;64.75
65854;DHT22;52627;48.838;2.402;2022-08-24T04:18:52;23.27;64.82
65854;DHT22;52627;48.838;2.402;2022-08-24T04:23:52;23.26;64.87
65854;DHT22;52627;48.838;2.402;2022-08-24T04:26:21;23.26;64.90
65854;DHT22;52627;48.838;2.402;2022-08-24T04:29:12;23.24;65.00
65854;DHT22;52627;48.838;2.402;2022-08-24T04:31:41;23.22;65.06
65854;DHT22;52627;48.838;2.402;2022-08-24T04:34:10;23.21;65.08
65854;DHT22;52627;48.838;2.402;2022-08-24T04:36:40;23.19;65.09
65854;DHT22;52627;48.838;2.402;2022-08-24T04:39:11;23.19;65.11
65854;DHT22;52627;48.838;2.402;2022-08-24T04:41:40;23.16;65.19
65854;DHT22;52627;48.838;2.402;2022-08-24T04:44:08;23.15;65.20
65854;DHT22;52627;48.838;2.402;2022-08-24T04:46:36;23.15;65.20
65854;DHT22;52627;48.838;2.402;2022-08-24T04:49:03;23.14;65.24
65854;DHT22;52627;48.838;2.402;2022-08-24T04:51:31;23.14;65.26
65854;DHT22;52627;48.838;2.402;2022-08-24T04:54:03;23.14;65.27
65854;DHT22;52627;48.838;2.402;2022-08-24T04:56:32;23.14;65.30
65854;DHT22;52627;48.838;2.402;2022-08-24T04:59:01;23.14;65.29
65854;DHT22;52627;48.838;2.402;2022-08-24T05:01:29;23.14;65.30
65854;DHT22;52627;48.838;2.402;2022-08-24T05:03:59;23.14;65.33
65854;DHT22;52627;48.838;2.402;2022-08-24T05:06:27;23.13;65.39
65854;DHT22;52627;48.838;2.402;2022-08-24T05:08:57;23.13;65.40
65854;DHT22;52627;48.838;2.402;2022-08-24T05:11:26;23.13;65.42
65854;DHT22;52627;48.838;2.402;2022-08-24T05:13:55;23.12;65.47
65854;DHT22;52627;48.838;2.402;2022-08-24T05:16:24;23.12;65.50
65854;DHT22;52627;48.838;2.402;2022-08-24T05:18:53;23.08;65.51
65854;DHT22;52627;48.838;2.402;2022-08-24T05:21:23;23.07;65.57
65854;DHT22;52627;48.838;2.402;2022-08-24T05:23:52;23.07;65.60
65854;DHT22;52627;48.838;2.402;2022-08-24T05:26:24;23.08;65.62
65854;DHT22;52627;48.838;2.402;2022-08-24T05:28:54;23.08;65.66
65854;DHT22;52627;48.838;2.402;2022-08-24T05:31:25;23.08;65.68
65854;DHT22;52627;48.838;2.402;2022-08-24T05:33:58;23.07;65.70
65854;DHT22;52627;48.838;2.402;2022-08-24T05:36:33;23.08;65.71
65854;DHT22;52627;48.838;2.402;2022-08-24T05:39:06;23.08;65.70
65854;DHT22;52627;48.838;2.402;2022-08-24T05:41:38;23.09;65.70
65854;DHT22;52627;48.838;2.402;2022-08-24T05:44:11;23.10;65.72
65854;DHT22;52627;48.838;2.402;2022-08-24T05:46:41;23.11;65.73
65854;DHT22;52627;48.838;2.402;2022-08-24T05:49:09;23.12;65.77
65854;DHT22;52627;48.838;2.402;2022-08-24T05:51:37;23.13;65.71
65854;DHT22;52627;48.838;2.402;2022-08-24T05:54:05;23.14;65.71
65854;DHT22;52627;48.838;2.402;2022-08-24T05:56:33;23.16;65.74
65854;DHT22;52627;48.838;2.402;2022-08-24T05:59:01;23.18;65.70
65854;DHT22;52627;48.838;2.402;2022-08-24T06:01:29;23.20;65.70
65854;DHT22;52627;48.838;2.402;2022-08-24T06:03:58;23.21;65.70
65854;DHT22;52627;48.838;2.402;2022-08-24T06:06:25;23.21;65.70
65854;DHT22;52627;48.838;2.402;2022-08-24T06:08:55;23.18;65.70
65854;DHT22;52627;48.838;2.402;2022-08-24T06:11:29;23.14;65.70
65854;DHT22;52627;48.838;2.402;2022-08-24T06:14:05;23.14;65.70
65854;DHT22;52627;48.838;2.402;2022-08-24T06:16:41;23.12;65.69
65854;DHT22;52627;48.838;2.402;2022-08-24T06:19:13;23.04;65.70
65854;DHT22;52627;48.838;2.402;2022-08-24T06:21:44;22.98;65.77
65854;DHT22;52627;48.838;2.402;2022-08-24T06:24:15;22.99;65.72
65854;DHT22;52627;48.838;2.402;2022-08-24T06:26:43;22.99;65.67
65854;DHT22;52627;48.838;2.402;2022-08-24T06:29:32;22.97;65.70
65854;DHT22;52627;48.838;2.402;2022-08-24T06:32:00;22.95;65.70
65854;DHT22;52627;48.838;2.402;2022-08-24T06:34:27;22.97;65.70
65854;DHT22;52627;48.838;2.402;2022-08-24T06:36:55;23.03;65.68
65854;DHT22;52627;48.838;2.402;2022-08-24T06:39:22;23.05;65.62
65854;DHT22;52627;48.838;2.402;2022-08-24T06:41:51;23.05;65.60
65854;DHT22;52627;48.838;2.402;2022-08-24T06:44:19;23.12;65.56
65854;DHT22;52627;48.838;2.402;2022-08-24T06:46:47;23.20;65.49
65854;DHT22;52627;48.838;2.402;2022-08-24T06:49:16;23.25;65.33
65854;DHT22;52627;48.838;2.402;2022-08-24T06:51:43;23.30;65.29
65854;DHT22;52627;48.838;2.402;2022-08-24T06:54:17;23.37;65.21
65854;DHT22;52627;48.838;2.402;2022-08-24T06:56:46;23.45;65.10
65854;DHT22;52627;48.838;2.402;2022-08-24T06:59:14;23.54;64.96
65854;DHT22;52627;48.838;2.402;2022-08-24T07:01:42;23.63;64.85
65854;DHT22;52627;48.838;2.402;2022-08-24T07:04:10;23.73;64.75
65854;DHT22;52627;48.838;2.402;2022-08-24T07:06:38;23.84;64.64
65854;DHT22;52627;48.838;2.402;2022-08-24T07:09:05;23.96;64.48
65854;DHT22;52627;48.838;2.402;2022-08-24T07:11:35;24.10;64.36
65854;DHT22;52627;48.838;2.402;2022-08-24T07:14:03;24.26;64.17
65854;DHT22;52627;48.838;2.402;2022-08-24T07:16:31;24.40;63.87
65854;DHT22;52627;48.838;2.402;2022-08-24T07:18:59;24.57;63.68
65854;DHT22;52627;48.838;2.402;2022-08-24T07:21:28;24.79;63.51
65854;DHT22;52627;48.838;2.402;2022-08-24T07:23:56;24.98;63.00
65854;DHT22;52627;48.838;2.402;2022-08-24T07:26:26;25.10;62.62
65854;DHT22;52627;48.838;2.402;2022-08-24T07:29:04;25.29;62.46
65854;DHT22;52627;48.838;2.402;2022-08-24T07:31:57;25.57;62.14
65854;DHT22;52627;48.838;2.402;2022-08-24T07:34:27;25.85;61.74
65854;DHT22;52627;48.838;2.402;2022-08-24T07:36:55;26.17;61.46
65854;DHT22;52627;48.838;2.402;2022-08-24T07:39:22;26.55;61.11
65854;DHT22;52627;48.838;2.402;2022-08-24T07:41:50;26.94;60.48
65854;DHT22;52627;48.838;2.402;2022-08-24T07:44:37;27.34;59.77
65854;DHT22;52627;48.838;2.402;2022-08-24T07:47:05;27.71;58.94
65854;DHT22;52627;48.838;2.402;2022-08-24T07:49:52;28.12;57.96
65854;DHT22;52627;48.838;2.402;2022-08-24T07:52:20;28.54;57.25
65854;DHT22;52627;48.838;2.402;2022-08-24T07:54:47;28.97;55.73
65854;DHT22;52627;48.838;2.402;2022-08-24T07:57:15;29.44;55.25
65854;DHT22;52627;48.838;2.402;2022-08-24T07:59:43;30.08;54.58
65854;DHT22;52627;48.838;2.402;2022-08-24T08:02:13;30.65;53.43
65854;DHT22;52627;48.838;2.402;2022-08-24T08:04:40;31.11;52.30
65854;DHT22;52627;48.838;2.402;2022-08-24T08:07:08;31.62;51.23
65854;DHT22;52627;48.838;2.402;2022-08-24T08:09:37;32.00;49.75
65854;DHT22;52627;48.838;2.402;2022-08-24T08:12:05;32.34;48.95
65854;DHT22;52627;48.838;2.402;2022-08-24T08:14:33;32.87;48.40
65854;DHT22;52627;48.838;2.402;2022-08-24T08:17:01;33.33;47.03
65854;DHT22;52627;48.838;2.402;2022-08-24T08:19:28;33.62;45.77
65854;DHT22;52627;48.838;2.402;2022-08-24T08:21:56;33.87;45.30
65854;DHT22;52627;48.838;2.402;2022-08-24T08:24:42;34.28;44.32
65854;DHT22;52627;48.838;2.402;2022-08-24T08:27:10;34.72;43.27
65854;DHT22;52627;48.838;2.402;2022-08-24T08:29:42;35.05;42.14
65854;DHT22;52627;48.838;2.402;2022-08-24T08:32:10;35.40;41.64
65854;DHT22;52627;48.838;2.402;2022-08-24T08:34:43;35.86;40.94
65854;DHT22;52627;48.838;2.402;2022-08-24T08:37:12;36.37;40.37
65854;DHT22;52627;48.838;2.402;2022-08-24T08:39:41;36.61;38.70
65854;DHT22;52627;48.838;2.402;2022-08-24T08:53:42;37.90;35.08
65854;DHT22;52627;48.838;2.402;2022-08-24T08:59:38;37.90;33.85
65854;DHT22;52627;48.838;2.402;2022-08-24T09:08:32;37.98;32.44
65854;DHT22;52627;48.838;2.402;2022-08-24T09:23:00;38.62;30.04
65854;DHT22;52627;48.838;2.402;2022-08-24T09:25:39;38.48;29.87
65854;DHT22;52627;48.838;2.402;2022-08-24T09:28:50;38.53;29.83
65854;DHT22;52627;48.838;2.402;2022-08-24T09:37:51;39.19;28.98
65854;DHT22;52627;48.838;2.402;2022-08-24T09:58:07;38.66;28.76
65854;DHT22;52627;48.838;2.402;2022-08-24T10:01:32;38.72;28.54
65854;DHT22;52627;48.838;2.402;2022-08-24T10:04:35;38.45;28.74
65854;DHT22;52627;48.838;2.402;2022-08-24T10:07:31;38.71;28.82
65854;DHT22;52627;48.838;2.402;2022-08-24T10:10:12;39.06;28.82
65854;DHT22;52627;48.838;2.402;2022-08-24T10:13:12;39.29;28.54
65854;DHT22;52627;48.838;2.402;2022-08-24T10:18:55;39.23;28.42
65854;DHT22;52627;48.838;2.402;2022-08-24T10:21:49;39.44;28.20
65854;DHT22;52627;48.838;2.402;2022-08-24T10:27:49;39.53;28.15
65854;DHT22;52627;48.838;2.402;2022-08-24T10:46:16;38.58;27.73
65854;DHT22;52627;48.838;2.402;2022-08-24T10:49:19;38.50;27.66
65854;DHT22;52627;48.838;2.402;2022-08-24T10:55:10;38.15;27.80
65854;DHT22;52627;48.838;2.402;2022-08-24T10:58:22;38.13;27.96
65854;DHT22;52627;48.838;2.402;2022-08-24T11:01:11;38.27;27.91
65854;DHT22;52627;48.838;2.402;2022-08-24T11:06:43;37.81;27.55
65854;DHT22;52627;48.838;2.402;2022-08-24T11:09:51;37.51;27.96
65854;DHT22;52627;48.838;2.402;2022-08-24T11:12:27;37.87;28.02
65854;DHT22;52627;48.838;2.402;2022-08-24T11:20:43;37.77;28.47
65854;DHT22;52627;48.838;2.402;2022-08-24T11:23:24;37.91;28.38
65854;DHT22;52627;48.838;2.402;2022-08-24T11:26:05;37.90;28.19
65854;DHT22;52627;48.838;2.402;2022-08-24T11:28:44;37.92;28.23
65854;DHT22;52627;48.838;2.402;2022-08-24T11:34:09;37.54;28.35
65854;DHT22;52627;48.838;2.402;2022-08-24T11:36:44;37.65;28.39
65854;DHT22;52627;48.838;2.402;2022-08-24T11:39:13;37.63;28.41
65854;DHT22;52627;48.838;2.402;2022-08-24T11:41:55;37.65;28.57
65854;DHT22;52627;48.838;2.402;2022-08-24T11:47:24;37.91;28.47
65854;DHT22;52627;48.838;2.402;2022-08-24T11:58:58;36.95;28.60
65854;DHT22;52627;48.838;2.402;2022-08-24T12:01:43;36.97;28.69
65854;DHT22;52627;48.838;2.402;2022-08-24T12:06:52;36.83;28.90
65854;DHT22;52627;48.838;2.402;2022-08-24T12:13:26;36.69;29.15
65854;DHT22;52627;48.838;2.402;2022-08-24T12:16:09;36.49;29.28
65854;DHT22;52627;48.838;2.402;2022-08-24T12:19:08;36.38;29.52
65854;DHT22;52627;48.838;2.402;2022-08-24T12:21:49;36.36;29.53
65854;DHT22;52627;48.838;2.402;2022-08-24T12:27:28;36.58;29.63
65854;DHT22;52627;48.838;2.402;2022-08-24T12:32:34;36.64;29.83
65854;DHT22;52627;48.838;2.402;2022-08-24T12:35:18;36.72;29.74
65854;DHT22;52627;48.838;2.402;2022-08-24T12:38:02;36.73;29.76
65854;DHT22;52627;48.838;2.402;2022-08-24T12:40:43;36.91;29.76
65854;DHT22;52627;48.838;2.402;2022-08-24T12:43:50;36.95;29.58
65854;DHT22;52627;48.838;2.402;2022-08-24T12:46:23;36.93;29.61
65854;DHT22;52627;48.838;2.402;2022-08-24T12:51:53;36.83;29.07
65854;DHT22;52627;48.838;2.402;2022-08-24T12:58:21;36.83;28.88
65854;DHT22;52627;48.838;2.402;2022-08-24T13:01:02;36.83;28.83
65854;DHT22;52627;48.838;2.402;2022-08-24T13:03:33;36.83;28.94
65854;DHT22;52627;48.838;2.402;2022-08-24T13:06:06;36.95;28.88
65854;DHT22;52627;48.838;2.402;2022-08-24T13:08:44;36.85;28.68
65854;DHT22;52627;48.838;2.402;2022-08-24T13:11:30;36.53;28.81
65854;DHT22;52627;48.838;2.402;2022-08-24T13:14:17;36.46;28.79
65854;DHT22;52627;48.838;2.402;2022-08-24T13:21:51;36.75;28.90
65854;DHT22;52627;48.838;2.402;2022-08-24T13:29:25;37.29;28.95
65854;DHT22;52627;48.838;2.402;2022-08-24T13:31:56;37.46;28.73
65854;DHT22;52627;48.838;2.402;2022-08-24T13:34:37;37.46;28.50
65854;DHT22;52627;48.838;2.402;2022-08-24T13:37:26;37.19;28.33
65854;DHT22;52627;48.838;2.402;2022-08-24T13:45:47;36.45;27.88
65854;DHT22;52627;48.838;2.402;2022-08-24T13:48:52;35.94;27.64
65854;DHT22;52627;48.838;2.402;2022-08-24T13:51:41;35.56;27.78
65854;DHT22;52627;48.838;2.402;2022-08-24T13:54:32;35.30;27.63
65854;DHT22;52627;48.838;2.402;2022-08-24T13:58:04;35.10;27.53
65854;DHT22;52627;48.838;2.402;2022-08-24T14:08:57;34.49;27.91
65854;DHT22;52627;48.838;2.402;2022-08-24T14:12:00;34.26;28.24
65854;DHT22;52627;48.838;2.402;2022-08-24T14:14:50;34.14;28.46
65854;DHT22;52627;48.838;2.402;2022-08-24T14:17:44;34.16;28.66
65854;DHT22;52627;48.838;2.402;2022-08-24T14:40:33;33.99;29.09
65854;DHT22;52627;48.838;2.402;2022-08-24T14:43:29;33.99;29.02
65854;DHT22;52627;48.838;2.402;2022-08-24T14:48:47;33.85;29.00
65854;DHT22;52627;48.838;2.402;2022-08-24T14:57:16;33.69;29.34
65854;DHT22;52627;48.838;2.402;2022-08-24T15:05:23;33.49;29.74
65854;DHT22;52627;48.838;2.402;2022-08-24T15:11:06;33.45;29.92
65854;DHT22;52627;48.838;2.402;2022-08-24T15:13:56;33.50;30.08
65854;DHT22;52627;48.838;2.402;2022-08-24T15:16:41;33.49;30.25
65854;DHT22;52627;48.838;2.402;2022-08-24T15:20:06;33.50;30.30
65854;DHT22;52627;48.838;2.402;2022-08-24T15:22:44;33.44;30.39
65854;DHT22;52627;48.838;2.402;2022-08-24T15:28:28;33.47;30.61
65854;DHT22;52627;48.838;2.402;2022-08-24T15:33:28;33.54;30.58
65854;DHT22;52627;48.838;2.402;2022-08-24T15:36:11;33.51;30.57
65854;DHT22;52627;48.838;2.402;2022-08-24T15:38:42;33.54;30.72
65854;DHT22;52627;48.838;2.402;2022-08-24T15:41:15;33.63;30.90
65854;DHT22;52627;48.838;2.402;2022-08-24T15:43:59;33.72;30.88
65854;DHT22;52627;48.838;2.402;2022-08-24T15:46:37;33.80;30.81
65854;DHT22;52627;48.838;2.402;2022-08-24T15:51:56;33.89;30.64
65854;DHT22;52627;48.838;2.402;2022-08-24T15:54:32;33.91;30.59
65854;DHT22;52627;48.838;2.402;2022-08-24T15:59:46;33.94;30.47
65854;DHT22;52627;48.838;2.402;2022-08-24T16:02:18;33.93;30.50
65854;DHT22;52627;48.838;2.402;2022-08-24T16:08:04;33.90;30.45
65854;DHT22;52627;48.838;2.402;2022-08-24T16:13:25;33.79;30.40
65854;DHT22;52627;48.838;2.402;2022-08-24T16:32:10;33.83;30.35
65854;DHT22;52627;48.838;2.402;2022-08-24T16:37:36;33.78;30.09
65854;DHT22;52627;48.838;2.402;2022-08-24T16:40:06;33.75;30.17
65854;DHT22;52627;48.838;2.402;2022-08-24T16:42:35;33.71;30.28
65854;DHT22;52627;48.838;2.402;2022-08-24T16:45:04;33.69;30.30
65854;DHT22;52627;48.838;2.402;2022-08-24T16:47:35;33.65;30.30
65854;DHT22;52627;48.838;2.402;2022-08-24T16:50:03;33.60;30.26
65854;DHT22;52627;48.838;2.402;2022-08-24T16:52:32;33.53;30.32
65854;DHT22;52627;48.838;2.402;2022-08-24T16:55:00;33.40;30.37
65854;DHT22;52627;48.838;2.402;2022-08-24T16:57:29;33.30;30.43
65854;DHT22;52627;48.838;2.402;2022-08-24T16:59:59;33.24;30.59
65854;DHT22;52627;48.838;2.402;2022-08-24T17:02:26;33.25;30.56
65854;DHT22;52627;48.838;2.402;2022-08-24T17:04:54;33.24;30.61
65854;DHT22;52627;48.838;2.402;2022-08-24T17:07:23;33.19;30.64
65854;DHT22;52627;48.838;2.402;2022-08-24T17:09:54;33.19;30.76
65854;DHT22;52627;48.838;2.402;2022-08-24T17:12:22;33.19;30.79
65854;DHT22;52627;48.838;2.402;2022-08-24T17:14:50;33.21;30.84
65854;DHT22;52627;48.838;2.402;2022-08-24T17:17:19;33.22;30.88
65854;DHT22;52627;48.838;2.402;2022-08-24T17:19:48;33.24;30.89
65854;DHT22;52627;48.838;2.402;2022-08-24T17:22:20;33.24;30.76
65854;DHT22;52627;48.838;2.402;2022-08-24T17:24:49;33.21;30.76
65854;DHT22;52627;48.838;2.402;2022-08-24T17:27:19;33.22;30.80
65854;DHT22;52627;48.838;2.402;2022-08-24T17:29:50;33.22;30.81
65854;DHT22;52627;48.838;2.402;2022-08-24T17:32:18;33.22;30.81
65854;DHT22;52627;48.838;2.402;2022-08-24T17:34:45;33.19;30.85
65854;DHT22;52627;48.838;2.402;2022-08-24T17:37:13;33.20;30.91
65854;DHT22;52627;48.838;2.402;2022-08-24T17:39:41;33.18;30.97
65854;DHT22;52627;48.838;2.402;2022-08-24T17:42:09;33.16;31.03
65854;DHT22;52627;48.838;2.402;2022-08-24T17:44:56;33.13;31.12
65854;DHT22;52627;48.838;2.402;2022-08-24T17:47:25;33.10;31.18
65854;DHT22;52627;48.838;2.402;2022-08-24T17:49:53;33.05;31.24
65854;DHT22;52627;48.838;2.402;2022-08-24T17:52:20;33.00;31.34
65854;DHT22;52627;48.838;2.402;2022-08-24T17:54:47;32.96;31.45
65854;DHT22;52627;48.838;2.402;2022-08-24T17:57:15;32.91;31.54
65854;DHT22;52627;48.838;2.402;2022-08-24T17:59:43;32.86;31.59
65854;DHT22;52627;48.838;2.402;2022-08-24T18:02:11;32.80;31.67
65854;DHT22;52627;48.838;2.402;2022-08-24T18:04:39;32.72;31.71
65854;DHT22;52627;48.838;2.402;2022-08-24T18:07:11;32.65;31.78
65854;DHT22;52627;48.838;2.402;2022-08-24T18:10:02;32.57;31.90
65854;DHT22;52627;48.838;2.402;2022-08-24T18:12:34;32.49;31.99
65854;DHT22;52627;48.838;2.402;2022-08-24T18:15:01;32.40;32.10
65854;DHT22;52627;48.838;2.402;2022-08-24T18:17:37;32.34;32.23
65854;DHT22;52627;48.838;2.402;2022-08-24T18:20:10;32.28;32.36
65854;DHT22;52627;48.838;2.402;2022-08-24T18:22:40;32.23;32.45
65854;DHT22;52627;48.838;2.402;2022-08-24T18:25:15;32.16;32.57
65854;DHT22;52627;48.838;2.402;2022-08-24T18:27:45;32.07;32.66
65854;DHT22;52627;48.838;2.402;2022-08-24T18:30:22;32.00;32.79
65854;DHT22;52627;48.838;2.402;2022-08-24T18:32:56;31.91;32.86
65854;DHT22;52627;48.838;2.402;2022-08-24T18:35:26;31.84;32.93
65854;DHT22;52627;48.838;2.402;2022-08-24T18:37:54;31.79;33.01
65854;DHT22;52627;48.838;2.402;2022-08-24T18:40:21;31.72;33.10
65854;DHT22;52627;48.838;2.402;2022-08-24T18:42:49;31.64;33.12
65854;DHT22;52627;48.838;2.402;2022-08-24T18:45:17;31.60;33.20
65854;DHT22;52627;48.838;2.402;2022-08-24T18:47:44;31.53;33.22
65854;DHT22;52627;48.838;2.402;2022-08-24T18:50:19;31.47;33.30
65854;DHT22;52627;48.838;2.402;2022-08-24T18:52:47;31.41;33.38
65854;DHT22;52627;48.838;2.402;2022-08-24T18:55:15;31.37;33.41
65854;DHT22;52627;48.838;2.402;2022-08-24T18:57:43;31.35;33.49
65854;DHT22;52627;48.838;2.402;2022-08-24T19:00:10;31.32;33.52
65854;DHT22;52627;48.838;2.402;2022-08-24T19:02:39;31.30;33.60
65854;DHT22;52627;48.838;2.402;2022-08-24T19:05:28;31.26;33.68
65854;DHT22;52627;48.838;2.402;2022-08-24T19:07:55;31.22;33.74
65854;DHT22;52627;48.838;2.402;2022-08-24T19:10:24;31.18;33.80
65854;DHT22;52627;48.838;2.402;2022-08-24T19:12:56;31.16;33.91
65854;DHT22;52627;48.838;2.402;2022-08-24T19:15:28;31.13;34.07
65854;DHT22;52627;48.838;2.402;2022-08-24T19:18:09;31.09;34.22
65854;DHT22;52627;48.838;2.402;2022-08-24T19:20:38;31.02;34.35
65854;DHT22;52627;48.838;2.402;2022-08-24T19:23:21;30.97;34.38
65854;DHT22;52627;48.838;2.402;2022-08-24T19:25:57;30.91;34.64
65854;DHT22;52627;48.838;2.402;2022-08-24T19:28:26;30.84;34.86
65854;DHT22;52627;48.838;2.402;2022-08-24T19:30:55;30.79;34.87
65854;DHT22;52627;48.838;2.402;2022-08-24T19:33:31;30.73;35.09
65854;DHT22;52627;48.838;2.402;2022-08-24T19:36:03;30.67;35.16
65854;DHT22;52627;48.838;2.402;2022-08-24T19:38:31;30.61;35.17
65854;DHT22;52627;48.838;2.402;2022-08-24T19:40:59;30.57;35.34
65854;DHT22;52627;48.838;2.402;2022-08-24T19:43:37;30.52;35.41
65854;DHT22;52627;48.838;2.402;2022-08-24T19:46:25;30.47;35.43
65854;DHT22;52627;48.838;2.402;2022-08-24T19:48:53;30.42;35.54
65854;DHT22;52627;48.838;2.402;2022-08-24T19:51:22;30.37;35.56
65854;DHT22;52627;48.838;2.402;2022-08-24T19:53:50;30.32;35.79
65854;DHT22;52627;48.838;2.402;2022-08-24T19:56:18;30.28;35.77
65854;DHT22;52627;48.838;2.402;2022-08-24T20:01:20;30.20;35.81